Weather at San Francisco International Airport

Public forecast

Using degrees Fahrenheit for public forecast. Weather courtesy of forecast.io.

Current aviation weather report (METAR) for San Francisco International Airport

Retrieved 2021/04/11 09:56 UTC (11 minutes ago):

KSFO 110956Z 30004KT 10SM CLR 10/06 A2994 RMK AO2 SLP139 T01000056

Aviation forecast (TAF) for San Francisco International Airport

Retrieved 2021/04/11 06:39 UTC (3 hours ago):

TAF KSFO 110537Z 1106/1212 28016KT P6SM FEW200 FM110900 27006KT P6SM FEW022 SCT200 FM111200 VRB04KT P6SM FEW022 BKN200 FM112000 29017KT P6SM FEW200 FM120200 28012KT P6SM SCT200 FM120700 27008KT P6SM SCT020 SCT200